Time;durP1;ratioP1;P1;durP2;ratioP2;P2;SDS_P1;SDS_P2;PMS_P1;PMS_P2;Temp;Humidity;BMP_temperature;BMP_pressure;BME280_temperature;BME280_humidity;BME280_pressure;Samples;Min_cycle;Max_cycle;Signal;HPM_P1;HPM_P2
2023/09/29 00:00:18;;;;;;;10.45;1.63;;;;;;;16.86;77.76;101560.09;4997299;28;99011;-26
2023/09/29 00:02:45;;;;;;;6.20;1.65;;;;;;;16.85;77.51;101541.91;4996528;28;96983;-26
2023/09/29 00:05:11;;;;;;;4.70;1.48;;;;;;;16.87;77.50;101537.22;4996945;28;96828;-26
2023/09/29 00:07:37;;;;;;;6.05;2.13;;;;;;;16.92;77.49;101555.03;4995918;28;101142;-27
2023/09/29 00:10:08;;;;;;;2.58;1.17;;;;;;;16.93;77.97;101564.97;4995871;28;100571;-26
2023/09/29 00:12:35;;;;;;;6.32;1.15;;;;;;;16.93;77.78;101566.84;4997303;28;96608;-27
2023/09/29 00:15:00;;;;;;;5.18;1.63;;;;;;;16.93;77.86;101550.44;4997897;28;96958;-26
2023/09/29 00:17:26;;;;;;;4.28;1.30;;;;;;;16.94;77.42;101543.94;4997347;28;97989;-26
2023/09/29 00:19:52;;;;;;;7.57;1.85;;;;;;;16.93;77.63;101542.22;4995819;28;100908;-26
2023/09/29 00:22:18;;;;;;;4.93;1.17;;;;;;;16.91;77.68;101535.97;4996278;28;96564;-27
2023/09/29 00:24:43;;;;;;;6.47;1.70;;;;;;;16.93;77.62;101544.94;4996273;28;96856;-27
2023/09/29 00:27:08;;;;;;;6.85;1.83;;;;;;;16.98;77.75;101550.94;4997218;28;98481;-27
2023/09/29 00:29:34;;;;;;;7.68;1.90;;;;;;;16.96;77.80;101548.31;4997418;28;97695;-27
2023/09/29 00:31:59;;;;;;;7.97;2.10;;;;;;;16.98;78.18;101545.47;4997649;28;96628;-26
2023/09/29 00:34:25;;;;;;;7.63;2.40;;;;;;;16.99;77.75;101544.47;4996057;28;96833;-28
2023/09/29 00:36:51;;;;;;;7.35;1.98;;;;;;;16.97;77.92;101530.91;4996515;28;97508;-26
2023/09/29 00:39:18;;;;;;;6.75;1.90;;;;;;;16.96;77.73;101526.41;4997080;28;98040;-26
2023/09/29 00:41:43;;;;;;;5.30;1.25;;;;;;;17.01;77.63;101531.53;4996054;28;96695;-26
2023/09/29 00:44:10;;;;;;;4.00;1.50;;;;;;;16.97;77.80;101525.44;4995912;28;96814;-26
2023/09/29 00:46:36;;;;;;;7.20;1.45;;;;;;;17.00;78.30;101518.84;4995407;28;101496;-26
2023/09/29 00:49:03;;;;;;;3.35;1.15;;;;;;;17.00;78.14;101524.31;4995370;28;101368;-26
2023/09/29 00:51:29;;;;;;;2.55;1.20;;;;;;;16.98;78.41;101515.34;4997346;28;96962;-28
2023/09/29 00:53:55;;;;;;;7.80;2.20;;;;;;;16.99;78.10;101519.81;4996202;28;96871;-28
2023/09/29 00:56:20;;;;;;;4.95;1.67;;;;;;;16.96;77.98;101512.72;4995287;28;101312;-26
2023/09/29 00:58:46;;;;;;;5.72;1.50;;;;;;;17.02;78.29;101521.44;4996265;28;99117;-26
2023/09/29 01:01:14;;;;;;;6.68;1.35;;;;;;;16.98;78.19;101518.97;4996791;28;96535;-27
2023/09/29 01:03:39;;;;;;;8.70;1.77;;;;;;;17.02;78.06;101522.34;4995553;28;97634;-26
2023/09/29 01:06:08;;;;;;;5.10;1.67;;;;;;;16.94;78.16;101506.50;4998968;28;98066;-28
2023/09/29 01:08:34;;;;;;;4.00;1.35;;;;;;;16.94;78.26;101503.75;4998833;28;101107;-26
2023/09/29 01:10:59;;;;;;;6.53;1.50;;;;;;;16.93;78.14;101512.97;5000742;28;96552;-26
2023/09/29 01:13:25;;;;;;;6.68;2.20;;;;;;;17.01;78.38;101516.97;5000639;28;96852;-26
2023/09/29 01:15:50;;;;;;;3.17;1.63;;;;;;;17.00;78.06;101515.25;5000122;28;98068;-26
2023/09/29 01:18:16;;;;;;;5.22;1.70;;;;;;;17.03;78.14;101518.59;5000621;28;97386;-26
2023/09/29 01:20:42;;;;;;;4.00;1.63;;;;;;;17.03;78.53;101504.06;5000718;28;96789;-26
2023/09/29 01:23:08;;;;;;;8.75;1.52;;;;;;;17.05;77.98;101505.69;4999068;28;96888;-28
2023/09/29 01:25:34;;;;;;;3.50;1.35;;;;;;;17.01;78.07;101492.34;4997904;28;101078;-26
2023/09/29 01:28:02;;;;;;;7.43;1.50;;;;;;;17.00;78.15;101483.28;4998258;28;101228;-27
2023/09/29 01:30:27;;;;;;;4.13;1.55;;;;;;;17.03;78.00;101495.84;5000137;28;96676;-26
2023/09/29 01:32:56;;;;;;;5.07;1.15;;;;;;;17.04;78.35;101497.56;5000411;28;96725;-26
2023/09/29 01:35:23;;;;;;;3.35;1.33;;;;;;;17.02;78.60;101485.88;4998256;28;101524;-27
2023/09/29 01:37:51;;;;;;;6.03;1.75;;;;;;;17.00;78.44;101474.19;4999471;28;98602;-26
2023/09/29 01:40:17;;;;;;;3.78;1.48;;;;;;;17.01;78.42;101475.94;4998721;28;96588;-26
2023/09/29 01:42:44;;;;;;;4.10;1.40;;;;;;;17.04;78.43;101476.56;5000193;28;96794;-28
2023/09/29 01:45:16;;;;;;;5.18;1.40;;;;;;;17.03;78.20;101480.28;4998165;28;101187;-26
2023/09/29 01:47:47;;;;;;;6.03;1.48;;;;;;;17.01;78.57;101473.19;4998191;28;100757;-26
2023/09/29 01:50:16;;;;;;;6.10;1.73;;;;;;;16.95;78.49;101463.59;4998234;28;96698;-27
2023/09/29 01:52:44;;;;;;;4.45;1.60;;;;;;;17.03;78.83;101483.03;4998685;28;96786;-26
2023/09/29 01:55:14;;;;;;;4.60;1.52;;;;;;;17.03;78.67;101473.94;4998138;28;101557;-26
2023/09/29 01:57:41;;;;;;;7.32;1.48;;;;;;;16.97;79.00;101462.50;4998069;28;101276;-26
2023/09/29 02:00:10;;;;;;;6.03;1.05;;;;;;;17.01;78.50;101463.09;4999892;28;96586;-27
2023/09/29 02:02:36;;;;;;;7.35;1.88;;;;;;;17.00;78.97;101457.78;4998344;28;96828;-27
2023/09/29 02:05:01;;;;;;;2.90;1.17;;;;;;;17.04;79.01;101459.25;4999355;28;98524;-27
2023/09/29 02:07:27;;;;;;;5.68;1.17;;;;;;;17.04;79.11;101459.25;4999452;28;98597;-26
2023/09/29 02:09:52;;;;;;;5.45;1.15;;;;;;;17.01;78.87;101452.16;4999635;28;96556;-26
2023/09/29 02:12:17;;;;;;;4.07;1.38;;;;;;;17.04;78.95;101453.78;4999685;28;96858;-27
2023/09/29 02:14:43;;;;;;;5.43;1.17;;;;;;;17.01;78.97;101445.81;4998871;28;97950;-26
2023/09/29 02:17:10;;;;;;;7.88;2.28;;;;;;;17.03;78.87;101444.69;4998795;28;97839;-26
2023/09/29 02:19:35;;;;;;;7.65;2.13;;;;;;;17.05;78.95;101447.31;5000010;28;96543;-26
2023/09/29 02:22:02;;;;;;;5.28;1.90;;;;;;;17.03;78.82;101431.00;4999484;28;96810;-26
2023/09/29 02:24:27;;;;;;;9.10;2.13;;;;;;;17.07;79.34;101434.41;4997560;28;100758;-27
2023/09/29 02:26:53;;;;;;;5.10;1.40;;;;;;;17.09;78.25;101432.38;4999083;28;98053;-26
2023/09/29 02:29:18;;;;;;;7.50;1.70;;;;;;;17.07;78.59;101429.78;4998010;28;96529;-26
2023/09/29 02:31:43;;;;;;;8.43;1.77;;;;;;;17.04;78.27;101413.63;4999828;28;96851;-26
2023/09/29 02:34:09;;;;;;;3.00;1.35;;;;;;;17.12;77.93;101422.06;4998686;28;99509;-26
2023/09/29 02:36:36;;;;;;;7.72;2.28;;;;;;;17.14;78.13;101424.69;4998915;28;97777;-26
2023/09/29 02:39:03;;;;;;;4.40;1.65;;;;;;;17.20;78.12;101435.13;4998481;28;96794;-26
2023/09/29 02:41:30;;;;;;;4.85;1.67;;;;;;;17.23;78.37;101440.34;4997773;28;96870;-26
2023/09/29 02:43:55;;;;;;;4.15;1.35;;;;;;;17.24;77.71;101454.94;4996555;28;100963;-26
2023/09/29 02:46:20;;;;;;;2.50;1.15;;;;;;;17.20;78.89;101440.63;4998535;28;99885;-26
2023/09/29 02:48:46;;;;;;;2.92;0.95;;;;;;;17.17;79.48;101435.41;4999366;28;96528;-27
2023/09/29 02:51:16;;;;;;;4.38;1.83;;;;;;;17.17;79.98;101430.78;4997477;28;96861;-26
2023/09/29 02:53:42;;;;;;;7.00;1.13;;;;;;;17.09;80.67;101422.31;4997135;28;100934;-26
2023/09/29 02:56:11;;;;;;;4.97;1.30;;;;;;;17.09;81.06;101394.06;4998746;28;99234;-26
2023/09/29 02:58:37;;;;;;;8.02;1.75;;;;;;;17.10;80.57;101390.34;4998923;28;96711;-27
2023/09/29 03:01:02;;;;;;;4.88;1.63;;;;;;;17.05;80.42;101387.09;4997502;28;96814;-26
2023/09/29 03:03:28;;;;;;;5.15;1.67;;;;;;;17.02;81.37;101388.22;4998194;28;97717;-26
2023/09/29 03:05:53;;;;;;;3.88;1.58;;;;;;;17.04;81.25;101388.09;4998325;28;97819;-27
2023/09/29 03:08:18;;;;;;;3.97;1.48;;;;;;;16.96;81.97;101386.84;4999307;28;96424;-26
2023/09/29 03:10:44;;;;;;;5.45;1.90;;;;;;;16.98;82.97;101378.50;4998914;28;96800;-26
2023/09/29 03:13:11;;;;;;;4.47;1.75;;;;;;;17.01;81.66;101383.72;4998417;28;98039;-26
2023/09/29 03:15:36;;;;;;;3.47;1.48;;;;;;;16.95;81.99;101365.94;4996857;28;98880;-26
2023/09/29 03:18:01;;;;;;;2.22;1.20;;;;;;;16.98;82.30;101376.63;4998801;28;96683;-27
2023/09/29 03:20:28;;;;;;;8.70;1.77;;;;;;;16.95;82.74;101370.56;4998939;28;96781;-26
2023/09/29 03:23:00;;;;;;;5.80;1.92;;;;;;;16.93;82.62;101367.94;4996618;28;101207;-26
2023/09/29 03:25:26;;;;;;;4.57;1.23;;;;;;;16.95;83.25;101373.28;4996510;28;100563;-26
2023/09/29 03:27:52;;;;;;;4.93;1.55;;;;;;;16.91;83.99;101363.56;4995720;28;96643;-26
2023/09/29 03:30:17;;;;;;;3.20;1.10;;;;;;;16.94;84.11;101360.59;4998366;28;96826;-27
2023/09/29 03:32:43;;;;;;;5.18;1.48;;;;;;;17.00;83.58;101367.44;4998062;28;97321;-26
2023/09/29 03:35:09;;;;;;;5.07;1.48;;;;;;;17.01;83.58;101352.75;4996157;28;101162;-26
2023/09/29 03:37:38;;;;;;;3.78;1.23;;;;;;;16.98;83.30;101351.16;4998002;28;97310;-26
2023/09/29 03:40:08;;;;;;;3.65;1.52;;;;;;;17.03;83.16;101353.50;4998254;28;96862;-26
2023/09/29 03:42:35;;;;;;;6.57;1.45;;;;;;;17.02;84.17;101343.53;4997771;28;99109;-26
2023/09/29 03:45:05;;;;;;;6.05;1.73;;;;;;;17.00;83.44;101340.94;4996178;28;100935;-28
2023/09/29 03:47:32;;;;;;;4.75;1.33;;;;;;;17.07;84.69;101347.66;4996434;28;96723;-26
2023/09/29 03:49:58;;;;;;;6.82;1.63;;;;;;;17.06;84.33;101334.09;4996748;28;96787;-26
2023/09/29 03:52:25;;;;;;;4.38;1.83;;;;;;;17.08;84.24;101332.09;4997230;28;97491;-26
2023/09/29 03:54:50;;;;;;;3.72;1.38;;;;;;;17.11;83.45;101329.09;4996495;28;101156;-27
2023/09/29 03:57:16;;;;;;;2.10;1.27;;;;;;;17.16;83.76;101327.75;4998227;28;96521;-26
2023/09/29 03:59:42;;;;;;;8.00;2.30;;;;;;;17.18;84.46;101335.81;4998235;28;96751;-26
2023/09/29 04:02:07;;;;;;;4.75;1.48;;;;;;;17.17;84.24;101325.88;4995878;28;101355;-26
2023/09/29 04:04:33;;;;;;;2.95;1.45;;;;;;;17.18;84.53;101325.78;4997246;28;99156;-26
2023/09/29 04:06:58;;;;;;;7.85;1.80;;;;;;;17.25;83.88;101322.50;4998062;28;96551;-27
2023/09/29 04:09:24;;;;;;;2.50;1.25;;;;;;;17.25;83.84;101317.91;4998250;28;96931;-26
2023/09/29 04:11:50;;;;;;;5.13;1.25;;;;;;;17.31;83.59;101331.09;4997273;28;99667;-27
2023/09/29 04:14:15;;;;;;;4.57;1.83;;;;;;;17.34;83.71;101336.31;4995799;28;101025;-26
2023/09/29 04:16:41;;;;;;;4.97;1.63;;;;;;;17.34;84.64;101330.84;4996843;28;96663;-26
2023/09/29 04:19:07;;;;;;;2.30;1.10;;;;;;;17.37;83.89;101326.97;4997967;28;96807;-26
2023/09/29 04:21:32;;;;;;;6.57;1.60;;;;;;;17.38;83.85;101323.25;4996994;28;99396;-26
2023/09/29 04:23:57;;;;;;;7.43;1.35;;;;;;;17.40;83.21;101324.00;4997344;28;97749;-26
2023/09/29 04:26:23;;;;;;;2.45;1.35;;;;;;;17.46;84.13;101339.03;4997832;28;96491;-27
2023/09/29 04:28:50;;;;;;;3.25;1.48;;;;;;;17.48;83.77;101334.31;4997927;28;96788;-26
2023/09/29 04:31:16;;;;;;;4.53;1.70;;;;;;;17.46;84.04;101334.44;4995425;28;101080;-28
2023/09/29 04:33:42;;;;;;;3.65;1.23;;;;;;;17.53;83.53;101334.78;4995904;28;100985;-26
2023/09/29 04:36:07;;;;;;;3.55;1.13;;;;;;;17.55;83.50;101328.19;4996056;28;96485;-26
2023/09/29 04:38:33;;;;;;;2.70;1.30;;;;;;;17.59;83.47;101334.25;4997384;28;96826;-28
2023/09/29 04:40:59;;;;;;;4.13;1.40;;;;;;;17.61;83.36;101333.16;4996529;28;98134;-26
2023/09/29 04:43:24;;;;;;;1.67;1.00;;;;;;;17.62;83.90;101325.81;4995856;28;99120;-26
2023/09/29 04:45:50;;;;;;;3.03;1.17;;;;;;;17.62;83.57;101323.06;4997153;28;96624;-26
2023/09/29 04:48:15;;;;;;;3.92;0.98;;;;;;;17.67;83.05;101323.56;4997598;28;96738;-26
2023/09/29 04:50:41;;;;;;;3.55;1.13;;;;;;;17.68;83.10;101330.75;4995583;28;99251;-26
2023/09/29 04:53:06;;;;;;;5.32;1.40;;;;;;;17.67;83.74;101315.34;4996680;28;99358;-26
2023/09/29 04:55:32;;;;;;;2.80;0.70;;;;;;;17.72;83.57;101320.44;4997492;28;96610;-26
2023/09/29 04:57:57;;;;;;;4.75;1.30;;;;;;;17.70;82.99;101317.81;4997688;28;96810;-26
2023/09/29 05:00:24;;;;;;;1.92;0.90;;;;;;;17.77;83.66;101320.91;4995024;28;99775;-26
2023/09/29 05:02:49;;;;;;;3.78;1.27;;;;;;;17.73;83.62;101312.09;4995431;28;98845;-26
2023/09/29 05:05:15;;;;;;;3.05;1.15;;;;;;;17.76;83.65;101317.31;4996789;28;96587;-26
2023/09/29 05:07:43;;;;;;;5.80;1.52;;;;;;;17.74;83.93;101304.72;4997238;28;96793;-27
2023/09/29 05:10:10;;;;;;;3.20;1.40;;;;;;;17.74;83.39;101308.34;4995252;28;101195;-26
2023/09/29 05:12:36;;;;;;;1.63;0.73;;;;;;;17.78;83.27;101315.31;4995133;28;100693;-26
2023/09/29 05:15:02;;;;;;;4.20;1.13;;;;;;;17.83;83.48;101328.66;4995382;28;96687;-26
2023/09/29 05:17:27;;;;;;;5.78;1.27;;;;;;;17.81;83.95;101326.03;4997132;28;96750;-26
2023/09/29 05:19:53;;;;;;;3.13;0.93;;;;;;;17.81;83.09;101312.34;4996571;28;98020;-27
2023/09/29 05:22:20;;;;;;;3.63;1.25;;;;;;;17.80;83.61;101318.81;4997037;28;97765;-26
2023/09/29 05:24:46;;;;;;;5.03;1.05;;;;;;;17.80;83.91;101306.94;4996713;28;96628;-28
2023/09/29 05:27:11;;;;;;;4.80;1.17;;;;;;;17.82;83.88;101308.56;4997035;28;96889;-26
2023/09/29 05:29:37;;;;;;;2.85;1.15;;;;;;;17.86;83.90;101316.56;4995705;28;99277;-26
2023/09/29 05:32:03;;;;;;;4.43;1.30;;;;;;;17.88;84.17;101311.81;4996206;28;98937;-26
2023/09/29 05:34:28;;;;;;;1.13;0.90;;;;;;;17.86;83.94;101319.31;4996669;28;96650;-26
2023/09/29 05:36:53;;;;;;;3.25;1.10;;;;;;;17.86;83.74;101313.81;4996845;28;96747;-26
2023/09/29 05:39:19;;;;;;;2.58;1.15;;;;;;;17.89;83.77;101322.63;4996746;28;97991;-26
2023/09/29 05:41:44;;;;;;;2.65;0.98;;;;;;;17.92;83.77;101326.97;4996200;28;99037;-27
2023/09/29 05:44:10;;;;;;;6.00;1.60;;;;;;;17.86;84.19;101311.94;4995549;28;96717;-26
2023/09/29 05:46:35;;;;;;;3.70;1.40;;;;;;;17.90;84.52;101323.50;4997534;28;96809;-26
2023/09/29 05:49:00;;;;;;;3.35;1.15;;;;;;;17.87;84.92;101318.28;4996255;28;97864;-26
2023/09/29 05:51:26;;;;;;;2.03;1.10;;;;;;;17.86;84.97;101322.03;4997129;28;99214;-26
2023/09/29 05:53:51;;;;;;;2.05;1.20;;;;;;;17.86;84.80;101316.56;4999312;28;96515;-26
2023/09/29 05:56:16;;;;;;;2.97;0.95;;;;;;;17.89;85.43;101316.28;5000300;28;96819;-26
2023/09/29 05:58:42;;;;;;;3.20;1.30;;;;;;;17.91;85.21;101323.38;4999427;28;98521;-26
2023/09/29 06:01:09;;;;;;;2.35;1.00;;;;;;;17.92;84.91;101322.38;4999633;28;97319;-26
2023/09/29 06:03:34;;;;;;;3.72;1.10;;;;;;;17.94;86.02;101322.25;4998434;28;96657;-26
2023/09/29 06:06:00;;;;;;;2.10;1.08;;;;;;;17.95;85.31;101319.38;4999812;28;97043;-28
2023/09/29 06:08:25;;;;;;;3.05;1.40;;;;;;;17.96;85.46;101329.34;4999310;28;97877;-26
2023/09/29 06:10:51;;;;;;;2.72;1.15;;;;;;;17.99;85.84;101328.19;4999395;28;99641;-26
2023/09/29 06:13:16;;;;;;;3.30;1.23;;;;;;;17.98;86.12;101330.06;4998235;28;96765;-26
2023/09/29 06:15:42;;;;;;;2.60;1.35;;;;;;;17.98;86.75;101340.19;4999772;28;96744;-26
2023/09/29 06:18:07;;;;;;;3.45;1.13;;;;;;;18.01;85.94;101334.44;4998935;28;97960;-27
2023/09/29 06:20:33;;;;;;;3.65;1.52;;;;;;;18.06;86.18;101340.38;4999055;28;99116;-27
2023/09/29 06:22:58;;;;;;;1.70;1.02;;;;;;;18.05;85.99;101335.91;4999752;28;96511;-27
2023/09/29 06:25:24;;;;;;;5.38;1.40;;;;;;;18.11;86.56;101345.47;4999394;28;96820;-26
2023/09/29 06:27:49;;;;;;;2.38;1.17;;;;;;;18.10;87.46;101347.34;4998927;28;97919;-26
2023/09/29 06:30:14;;;;;;;2.60;1.17;;;;;;;18.15;87.05;101338.75;4998910;28;99282;-27
2023/09/29 06:32:41;;;;;;;1.92;1.15;;;;;;;18.20;86.38;101342.81;4999526;28;96613;-26
2023/09/29 06:35:06;;;;;;;1.77;1.05;;;;;;;18.22;87.71;101349.03;4998212;28;96879;-27
2023/09/29 06:37:32;;;;;;;3.75;1.35;;;;;;;18.21;89.64;101350.06;4997179;28;100950;-26
2023/09/29 06:39:57;;;;;;;2.83;1.13;;;;;;;18.24;89.15;101355.25;4998993;28;97760;-28
2023/09/29 06:42:23;;;;;;;3.42;1.58;;;;;;;18.18;91.13;101347.56;4998821;28;96508;-26
2023/09/29 06:44:48;;;;;;;3.00;1.27;;;;;;;18.19;90.89;101356.69;4998546;28;96852;-26
2023/09/29 06:47:13;;;;;;;2.85;1.35;;;;;;;18.19;91.33;101359.41;4998573;28;99261;-26
2023/09/29 06:49:39;;;;;;;4.00;1.17;;;;;;;18.18;92.12;101366.75;4998901;28;97785;-27
2023/09/29 06:52:04;;;;;;;1.23;0.77;;;;;;;18.16;91.79;101363.28;4999083;28;96508;-26
2023/09/29 06:54:29;;;;;;;1.95;1.02;;;;;;;18.17;91.65;101362.28;4999272;28;96804;-26
2023/09/29 06:56:55;;;;;;;2.38;0.85;;;;;;;18.17;93.86;101361.41;4998747;28;97994;-26
2023/09/29 06:59:20;;;;;;;3.88;1.27;;;;;;;18.21;92.50;101366.50;4998816;28;97280;-27
2023/09/29 07:01:46;;;;;;;3.22;1.13;;;;;;;18.21;93.26;101369.25;4999098;28;96675;-26
2023/09/29 07:04:11;;;;;;;3.55;1.30;;;;;;;18.20;92.09;101362.00;4998775;28;96811;-26
2023/09/29 07:06:37;;;;;;;1.55;0.95;;;;;;;18.21;93.88;101365.63;4997906;28;99405;-26
2023/09/29 07:09:03;;;;;;;2.75;1.20;;;;;;;18.18;93.39;101368.63;4998298;28;99449;-26
2023/09/29 07:11:29;;;;;;;3.03;1.48;;;;;;;18.24;93.32;101368.13;4998781;28;96569;-26
2023/09/29 07:13:54;;;;;;;3.15;1.25;;;;;;;18.20;92.95;101364.75;4998783;28;96739;-26
2023/09/29 07:16:20;;;;;;;6.75;1.40;;;;;;;18.26;93.68;101368.84;4997110;28;98075;-28
2023/09/29 07:18:46;;;;;;;1.90;1.10;;;;;;;18.23;92.99;101364.50;4996870;28;98217;-26
2023/09/29 07:21:14;;;;;;;2.95;1.15;;;;;;;18.25;93.23;101370.69;4998466;28;96535;-26
2023/09/29 07:23:39;;;;;;;3.65;1.45;;;;;;;18.28;92.66;101371.44;4999071;28;96806;-26
2023/09/29 07:26:05;;;;;;;4.47;1.20;;;;;;;18.34;92.97;101384.66;4998183;28;97376;-29
2023/09/29 07:28:31;;;;;;;1.42;0.90;;;;;;;18.33;92.97;101385.63;4996480;28;100871;-26
2023/09/29 07:30:56;;;;;;;2.22;1.27;;;;;;;18.37;93.26;101382.50;4998229;28;96598;-27
2023/09/29 07:33:21;;;;;;;2.92;1.10;;;;;;;18.39;93.38;101396.09;4997465;28;96842;-26
2023/09/29 07:35:47;;;;;;;3.08;1.17;;;;;;;18.40;93.06;101386.84;4998168;28;97453;-26
2023/09/29 07:38:13;;;;;;;2.70;1.30;;;;;;;18.43;93.05;101387.47;4997723;28;99222;-26
2023/09/29 07:40:38;;;;;;;3.20;1.60;;;;;;;18.48;93.19;101389.81;4998211;28;96487;-26
2023/09/29 07:43:05;;;;;;;1.75;1.05;;;;;;;18.46;93.95;101380.84;4997643;28;96886;-27
2023/09/29 07:45:34;;;;;;;1.88;0.95;;;;;;;18.52;94.23;101388.56;4997998;28;97888;-26
2023/09/29 07:47:59;;;;;;;2.55;1.10;;;;;;;18.55;93.89;101381.94;4996590;28;101357;-26
2023/09/29 07:50:25;;;;;;;3.22;1.10;;;;;;;18.61;94.05;101384.97;4998351;28;96477;-26
2023/09/29 07:52:50;;;;;;;1.77;1.13;;;;;;;18.67;94.39;101384.47;4996684;28;97035;-27
2023/09/29 07:55:16;;;;;;;1.80;1.00;;;;;;;18.71;94.58;101385.09;4997071;28;98694;-26
2023/09/29 07:57:41;;;;;;;2.65;0.90;;;;;;;18.80;94.20;101399.88;4996253;28;97805;-27
2023/09/29 08:00:12;;;;;;;1.75;0.82;;;;;;;18.82;94.12;101392.38;4998234;28;96409;-27
2023/09/29 08:02:37;;;;;;;4.80;1.27;;;;;;;18.86;93.77;101404.84;4996668;28;96711;-27
2023/09/29 08:05:03;;;;;;;3.90;1.00;;;;;;;18.90;94.00;101400.81;4997696;28;97384;-26
2023/09/29 08:07:29;;;;;;;3.83;1.05;;;;;;;18.86;93.79;101405.72;4996102;28;102439;-26
2023/09/29 08:09:54;;;;;;;3.63;1.20;;;;;;;18.91;94.23;101399.81;4997805;28;96567;-26
2023/09/29 08:12:20;;;;;;;2.17;1.20;;;;;;;18.99;93.57;101405.50;4998424;28;96752;-26
2023/09/29 08:14:45;;;;;;;1.98;1.10;;;;;;;19.20;92.88;101408.22;4995463;28;101561;-26
2023/09/29 08:17:11;;;;;;;4.00;1.35;;;;;;;19.49;90.96;101404.72;4997379;28;97782;-26
2023/09/29 08:19:37;;;;;;;2.63;1.40;;;;;;;19.78;89.86;101396.59;4997384;28;96593;-26
2023/09/29 08:22:02;;;;;;;3.00;1.33;;;;;;;19.89;89.33;101409.38;4997518;28;96971;-26
2023/09/29 08:24:30;;;;;;;4.13;1.08;;;;;;;19.99;88.94;101420.38;4997271;28;97951;-28
2023/09/29 08:26:55;;;;;;;4.05;1.05;;;;;;;20.01;88.46;101423.88;4995799;28;100784;-26
2023/09/29 08:29:20;;;;;;;2.97;1.17;;;;;;;19.93;88.71;101425.44;4997172;28;96640;-26
2023/09/29 08:31:46;;;;;;;4.35;1.20;;;;;;;19.97;89.51;101428.75;4997720;28;96758;-26
2023/09/29 08:34:11;;;;;;;2.20;1.08;;;;;;;19.97;88.68;101427.91;4997300;28;97479;-26
2023/09/29 08:36:37;;;;;;;3.60;1.05;;;;;;;19.99;88.67;101435.00;4997435;28;97751;-27
2023/09/29 08:39:02;;;;;;;1.95;1.00;;;;;;;20.00;89.18;101433.09;4997033;28;96592;-26
2023/09/29 08:41:29;;;;;;;4.47;0.98;;;;;;;19.96;88.89;101435.28;4997433;28;96804;-26
2023/09/29 08:43:55;;;;;;;2.67;1.15;;;;;;;19.94;89.21;101434.56;4994159;28;98992;-26
2023/09/29 08:46:23;;;;;;;2.67;1.05;;;;;;;19.92;89.13;101431.06;4996888;28;97284;-26
2023/09/29 08:48:48;;;;;;;4.70;1.17;;;;;;;19.85;90.18;101444.50;4995930;28;96519;-26
2023/09/29 08:51:15;;;;;;;2.97;1.15;;;;;;;19.77;90.76;101447.09;4997357;28;96788;-27
2023/09/29 08:53:44;;;;;;;2.95;1.20;;;;;;;19.69;91.39;101455.19;4994875;28;100916;-31
2023/09/29 08:56:12;;;;;;;2.20;0.95;;;;;;;19.58;91.91;101452.50;4993161;28;100767;-30
2023/09/29 08:58:38;;;;;;;2.20;1.30;;;;;;;19.49;92.02;101448.69;4995205;28;96742;-26
2023/09/29 09:01:04;;;;;;;3.95;1.30;;;;;;;19.46;92.91;101463.56;4997150;28;96860;-26
2023/09/29 09:03:29;;;;;;;3.70;1.10;;;;;;;19.45;92.14;101467.34;4996452;28;98750;-27
2023/09/29 09:05:55;;;;;;;2.33;1.40;;;;;;;19.45;92.36;101474.69;4996498;28;99364;-26
2023/09/29 09:08:23;;;;;;;2.10;1.25;;;;;;;19.38;93.53;101474.41;4996188;28;97873;-26
2023/09/29 09:10:48;;;;;;;4.35;1.13;;;;;;;19.28;93.19;101456.97;4996931;28;96851;-26
2023/09/29 09:13:20;;;;;;;2.38;1.10;;;;;;;19.36;93.51;101467.31;4996788;28;97933;-26
2023/09/29 09:15:55;;;;;;;4.30;1.00;;;;;;;19.35;93.85;101469.16;4994280;28;101286;-28
2023/09/29 09:18:21;;;;;;;3.20;1.38;;;;;;;19.38;94.66;101482.63;4993117;28;96800;-26
2023/09/29 09:20:51;;;;;;;3.97;1.23;;;;;;;19.35;93.25;101462.78;4994571;28;97149;-27
2023/09/29 09:23:16;;;;;;;4.57;1.17;;;;;;;19.27;94.22;101468.97;4992567;28;101230;-26
2023/09/29 09:25:43;;;;;;;1.95;1.00;;;;;;;19.27;94.69;101467.09;4994426;28;99587;-28
2023/09/29 09:28:20;;;;;;;2.25;1.10;;;;;;;19.26;94.42;101473.59;4998128;28;96703;-28
2023/09/29 09:30:47;;;;;;;3.03;1.50;;;;;;;19.31;94.35;101482.31;4997101;28;97149;-27
2023/09/29 09:33:18;;;;;;;3.08;1.40;;;;;;;19.31;95.57;101485.06;4997942;28;101225;-27
2023/09/29 09:35:44;;;;;;;2.60;1.20;;;;;;;19.29;96.30;101488.94;4998412;28;101028;-26
2023/09/29 09:38:10;;;;;;;2.78;1.50;;;;;;;19.29;95.06;101489.81;4998654;28;96727;-26
2023/09/29 09:40:36;;;;;;;4.15;1.67;;;;;;;19.25;96.10;101493.81;4998794;28;96930;-26
2023/09/29 09:43:06;;;;;;;4.05;1.67;;;;;;;19.25;95.22;101498.44;4998816;28;99925;-26
2023/09/29 09:45:43;;;;;;;2.80;1.27;;;;;;;19.26;95.85;101506.56;4999489;28;99745;-26
2023/09/29 09:48:14;;;;;;;1.85;1.30;;;;;;;19.22;95.46;101505.09;5000018;28;96585;-27
2023/09/29 09:50:43;;;;;;;3.70;1.70;;;;;;;19.24;95.63;101503.09;5000469;28;96638;-26
2023/09/29 09:53:11;;;;;;;2.45;1.42;;;;;;;19.20;95.91;101498.84;4998104;28;100976;-27
2023/09/29 09:55:45;;;;;;;2.22;1.42;;;;;;;19.24;96.82;101502.22;4998030;28;100793;-26
2023/09/29 09:58:15;;;;;;;2.80;1.30;;;;;;;19.25;95.81;101501.19;4998010;28;96608;-26
2023/09/29 10:00:50;;;;;;;2.60;1.20;;;;;;;19.33;96.47;101517.91;4998408;28;97008;-26
2023/09/29 10:03:16;;;;;;;2.40;1.30;;;;;;;19.34;95.98;101508.63;4999329;28;99521;-26
2023/09/29 10:05:51;;;;;;;3.72;1.40;;;;;;;19.43;95.99;101517.94;4997969;28;100866;-26
2023/09/29 10:08:44;;;;;;;3.20;1.42;;;;;;;19.47;95.26;101517.53;4998657;28;96601;-26
2023/09/29 10:11:13;;;;;;;1.50;1.08;;;;;;;19.47;95.53;101531.28;4997973;28;96713;-26
2023/09/29 10:13:40;;;;;;;3.92;1.10;;;;;;;19.42;96.75;101528.03;4997946;28;101015;-26
2023/09/29 10:16:06;;;;;;;2.92;1.08;;;;;;;19.41;96.35;101523.56;4998026;28;101127;-26
2023/09/29 10:18:35;;;;;;;4.95;1.10;;;;;;;19.33;97.55;101520.66;4999770;28;96718;-26
2023/09/29 10:21:09;;;;;;;2.25;1.10;;;;;;;19.42;97.31;101540.91;4998235;28;96827;-26
2023/09/29 10:23:50;;;;;;;3.65;1.05;;;;;;;19.33;98.51;101534.38;4998606;28;98318;-26
2023/09/29 10:26:16;;;;;;;1.67;0.90;;;;;;;19.28;98.18;101536.63;4999021;28;99399;-27
2023/09/29 10:28:42;;;;;;;1.50;0.90;;;;;;;19.29;98.40;101563.97;4998056;28;96626;-27
2023/09/29 10:31:16;;;;;;;0.95;0.68;;;;;;;19.22;99.17;101576.50;4998174;28;96874;-26
2023/09/29 10:33:55;;;;;;;0.77;0.50;;;;;;;19.22;98.68;101587.50;4998860;28;98444;-27
2023/09/29 10:36:25;;;;;;;0.90;0.45;;;;;;;19.25;98.84;101600.09;4998694;28;99890;-27
2023/09/29 10:38:53;;;;;;;5.05;0.75;;;;;;;19.17;98.37;101594.41;4999105;28;96738;-26
2023/09/29 10:41:19;;;;;;;1.60;0.50;;;;;;;19.12;98.69;101604.91;4998191;28;96875;-26
2023/09/29 10:43:49;;;;;;;1.02;0.40;;;;;;;19.06;98.07;101612.66;4998082;28;97908;-26
2023/09/29 10:46:16;;;;;;;1.50;0.57;;;;;;;18.96;98.03;101605.34;4998369;28;99135;-26
2023/09/29 10:48:59;;;;;;;0.65;0.47;;;;;;;19.04;97.84;101619.28;4997437;28;96644;-26
2023/09/29 10:51:27;;;;;;;0.95;0.40;;;;;;;19.07;98.54;101627.28;4999446;28;96574;-26
2023/09/29 10:53:53;;;;;;;1.23;0.50;;;;;;;19.04;98.12;101633.00;4997202;28;101438;-26
2023/09/29 10:56:24;;;;;;;1.30;0.47;;;;;;;19.03;97.60;101643.13;4998882;28;97264;-26
2023/09/29 10:58:52;;;;;;;5.03;0.53;;;;;;;18.92;97.57;101634.91;4997403;28;96680;-26
2023/09/29 11:01:32;;;;;;;0.98;0.52;;;;;;;18.96;97.40;101643.78;4997693;28;96897;-27
2023/09/29 11:03:58;;;;;;;0.63;0.30;;;;;;;19.01;96.71;101658.00;4998731;28;98032;-27
2023/09/29 11:06:23;;;;;;;1.45;0.52;;;;;;;19.07;97.41;101649.25;4997257;28;101097;-27
2023/09/29 11:08:57;;;;;;;1.20;0.40;;;;;;;19.09;96.45;101661.84;4998838;28;96710;-26
2023/09/29 11:11:25;;;;;;;2.40;0.55;;;;;;;19.07;96.58;101671.22;4998562;28;96765;-26
2023/09/29 11:13:56;;;;;;;0.50;0.30;;;;;;;18.86;96.54;101661.03;4997825;28;99149;-26
2023/09/29 11:16:24;;;;;;;1.58;0.35;;;;;;;18.90;96.67;101686.34;4996761;28;100661;-26
2023/09/29 11:18:51;;;;;;;1.95;0.52;;;;;;;18.80;96.95;101680.75;4997335;28;96575;-28
2023/09/29 11:21:19;;;;;;;0.60;0.32;;;;;;;18.82;97.37;101695.22;4997290;28;96824;-26